sensor_id;sensor_type;location;lat;lon;timestamp;P1;durP1;ratioP1;P2;durP2;ratioP2
19434;SDS011;9853;50.848;4.108;2023-11-18T00:01:43;4.50;;;3.30;;
19434;SDS011;9853;50.848;4.108;2023-11-18T00:03:44;5.67;;;3.47;;
19434;SDS011;9853;50.848;4.108;2023-11-18T00:05:45;4.77;;;2.00;;
19434;SDS011;9853;50.848;4.108;2023-11-18T00:07:45;8.73;;;2.90;;
19434;SDS011;9853;50.848;4.108;2023-11-18T00:09:46;6.37;;;3.37;;
19434;SDS011;9853;50.848;4.108;2023-11-18T00:11:47;6.07;;;3.07;;
19434;SDS011;9853;50.848;4.108;2023-11-18T00:13:49;5.67;;;3.07;;
19434;SDS011;9853;50.848;4.108;2023-11-18T00:15:50;7.23;;;3.07;;
19434;SDS011;9853;50.848;4.108;2023-11-18T00:17:51;6.50;;;2.87;;
19434;SDS011;9853;50.848;4.108;2023-11-18T00:19:52;13.03;;;3.93;;
19434;SDS011;9853;50.848;4.108;2023-11-18T00:21:53;17.27;;;3.28;;
19434;SDS011;9853;50.848;4.108;2023-11-18T00:23:54;7.27;;;2.73;;
19434;SDS011;9853;50.848;4.108;2023-11-18T00:25:56;5.43;;;3.23;;
19434;SDS011;9853;50.848;4.108;2023-11-18T00:27:57;5.53;;;3.37;;
19434;SDS011;9853;50.848;4.108;2023-11-18T00:29:58;7.77;;;3.17;;
19434;SDS011;9853;50.848;4.108;2023-11-18T00:31:59;8.67;;;2.70;;
19434;SDS011;9853;50.848;4.108;2023-11-18T00:34:00;7.40;;;2.97;;
19434;SDS011;9853;50.848;4.108;2023-11-18T00:36:01;6.05;;;2.40;;
19434;SDS011;9853;50.848;4.108;2023-11-18T00:38:02;8.90;;;3.40;;
19434;SDS011;9853;50.848;4.108;2023-11-18T00:40:03;4.10;;;2.23;;
19434;SDS011;9853;50.848;4.108;2023-11-18T00:42:05;8.27;;;2.80;;
19434;SDS011;9853;50.848;4.108;2023-11-18T00:44:06;6.40;;;3.00;;
19434;SDS011;9853;50.848;4.108;2023-11-18T00:46:07;7.50;;;2.40;;
19434;SDS011;9853;50.848;4.108;2023-11-18T00:48:08;7.97;;;3.10;;
19434;SDS011;9853;50.848;4.108;2023-11-18T00:50:09;6.27;;;2.70;;
19434;SDS011;9853;50.848;4.108;2023-11-18T00:52:10;6.43;;;2.57;;
19434;SDS011;9853;50.848;4.108;2023-11-18T00:54:12;10.57;;;3.43;;
19434;SDS011;9853;50.848;4.108;2023-11-18T00:56:15;5.75;;;2.63;;
19434;SDS011;9853;50.848;4.108;2023-11-18T00:58:18;5.93;;;2.50;;
19434;SDS011;9853;50.848;4.108;2023-11-18T01:00:19;7.17;;;3.83;;
19434;SDS011;9853;50.848;4.108;2023-11-18T01:02:22;15.10;;;2.87;;
19434;SDS011;9853;50.848;4.108;2023-11-18T01:04:23;4.17;;;2.30;;
19434;SDS011;9853;50.848;4.108;2023-11-18T01:06:26;7.83;;;2.83;;
19434;SDS011;9853;50.848;4.108;2023-11-18T01:08:27;7.90;;;3.20;;
19434;SDS011;9853;50.848;4.108;2023-11-18T01:10:28;7.77;;;2.13;;
19434;SDS011;9853;50.848;4.108;2023-11-18T01:12:29;6.30;;;2.70;;
19434;SDS011;9853;50.848;4.108;2023-11-18T01:14:31;4.97;;;2.37;;
19434;SDS011;9853;50.848;4.108;2023-11-18T01:16:31;8.60;;;2.70;;
19434;SDS011;9853;50.848;4.108;2023-11-18T01:18:34;8.50;;;3.00;;
19434;SDS011;9853;50.848;4.108;2023-11-18T01:20:35;6.67;;;1.97;;
19434;SDS011;9853;50.848;4.108;2023-11-18T01:22:36;7.00;;;2.40;;
19434;SDS011;9853;50.848;4.108;2023-11-18T01:24:38;7.53;;;2.57;;
19434;SDS011;9853;50.848;4.108;2023-11-18T01:26:38;9.17;;;3.00;;
19434;SDS011;9853;50.848;4.108;2023-11-18T01:28:39;4.60;;;2.23;;
19434;SDS011;9853;50.848;4.108;2023-11-18T01:30:43;6.50;;;1.98;;
19434;SDS011;9853;50.848;4.108;2023-11-18T01:32:46;8.00;;;1.87;;
19434;SDS011;9853;50.848;4.108;2023-11-18T01:34:47;4.10;;;2.30;;
19434;SDS011;9853;50.848;4.108;2023-11-18T01:36:50;9.33;;;2.67;;
19434;SDS011;9853;50.848;4.108;2023-11-18T01:38:51;5.50;;;2.57;;
19434;SDS011;9853;50.848;4.108;2023-11-18T01:40:54;4.23;;;2.27;;
19434;SDS011;9853;50.848;4.108;2023-11-18T01:42:57;4.43;;;2.77;;
19434;SDS011;9853;50.848;4.108;2023-11-18T01:44:57;5.37;;;2.10;;
19434;SDS011;9853;50.848;4.108;2023-11-18T01:46:59;10.10;;;2.90;;
19434;SDS011;9853;50.848;4.108;2023-11-18T01:49:03;3.70;;;2.40;;
19434;SDS011;9853;50.848;4.108;2023-11-18T01:51:04;4.88;;;1.88;;
19434;SDS011;9853;50.848;4.108;2023-11-18T01:53:08;3.95;;;1.80;;
19434;SDS011;9853;50.848;4.108;2023-11-18T01:55:11;7.72;;;1.75;;
19434;SDS011;9853;50.848;4.108;2023-11-18T01:57:13;6.07;;;2.13;;
19434;SDS011;9853;50.848;4.108;2023-11-18T01:59:16;5.30;;;1.92;;
19434;SDS011;9853;50.848;4.108;2023-11-18T02:01:20;4.63;;;1.88;;
19434;SDS011;9853;50.848;4.108;2023-11-18T02:03:22;12.77;;;3.22;;
19434;SDS011;9853;50.848;4.108;2023-11-18T02:05:23;5.68;;;2.97;;
19434;SDS011;9853;50.848;4.108;2023-11-18T02:07:24;6.50;;;2.72;;
19434;SDS011;9853;50.848;4.108;2023-11-18T02:09:25;4.55;;;2.17;;
19434;SDS011;9853;50.848;4.108;2023-11-18T02:11:36;8.23;;;2.25;;
19434;SDS011;9853;50.848;4.108;2023-11-18T02:13:42;7.93;;;1.70;;
19434;SDS011;9853;50.848;4.108;2023-11-18T02:15:47;7.10;;;3.08;;
19434;SDS011;9853;50.848;4.108;2023-11-18T02:17:48;5.63;;;1.48;;
19434;SDS011;9853;50.848;4.108;2023-11-18T02:19:53;5.13;;;1.73;;
19434;SDS011;9853;50.848;4.108;2023-11-18T02:21:56;5.45;;;1.70;;
19434;SDS011;9853;50.848;4.108;2023-11-18T02:23:58;7.67;;;2.90;;
19434;SDS011;9853;50.848;4.108;2023-11-18T02:25:58;4.83;;;1.97;;
19434;SDS011;9853;50.848;4.108;2023-11-18T02:28:01;5.95;;;2.13;;
19434;SDS011;9853;50.848;4.108;2023-11-18T02:30:02;14.60;;;2.20;;
19434;SDS011;9853;50.848;4.108;2023-11-18T02:32:11;4.82;;;1.67;;
19434;SDS011;9853;50.848;4.108;2023-11-18T02:34:34;3.87;;;1.97;;
19434;SDS011;9853;50.848;4.108;2023-11-18T02:36:41;4.18;;;1.48;;
19434;SDS011;9853;50.848;4.108;2023-11-18T02:38:47;7.05;;;2.42;;
19434;SDS011;9853;50.848;4.108;2023-11-18T02:40:51;4.28;;;1.77;;
19434;SDS011;9853;50.848;4.108;2023-11-18T02:42:57;4.07;;;1.87;;
19434;SDS011;9853;50.848;4.108;2023-11-18T02:45:00;4.33;;;1.77;;
19434;SDS011;9853;50.848;4.108;2023-11-18T02:47:02;3.13;;;1.52;;
19434;SDS011;9853;50.848;4.108;2023-11-18T02:49:05;6.55;;;1.27;;
19434;SDS011;9853;50.848;4.108;2023-11-18T02:51:06;3.58;;;1.38;;
19434;SDS011;9853;50.848;4.108;2023-11-18T02:53:09;7.23;;;1.20;;
19434;SDS011;9853;50.848;4.108;2023-11-18T02:55:10;5.03;;;1.27;;
19434;SDS011;9853;50.848;4.108;2023-11-18T02:57:11;12.00;;;2.57;;
19434;SDS011;9853;50.848;4.108;2023-11-18T02:59:14;1.57;;;1.13;;
19434;SDS011;9853;50.848;4.108;2023-11-18T03:01:16;3.73;;;1.53;;
19434;SDS011;9853;50.848;4.108;2023-11-18T03:03:16;10.80;;;2.67;;
19434;SDS011;9853;50.848;4.108;2023-11-18T03:05:18;8.85;;;1.65;;
19434;SDS011;9853;50.848;4.108;2023-11-18T03:07:19;10.32;;;2.53;;
19434;SDS011;9853;50.848;4.108;2023-11-18T03:09:19;5.85;;;1.60;;
19434;SDS011;9853;50.848;4.108;2023-11-18T03:11:21;7.05;;;1.70;;
19434;SDS011;9853;50.848;4.108;2023-11-18T03:13:22;4.22;;;1.33;;
19434;SDS011;9853;50.848;4.108;2023-11-18T03:15:23;5.78;;;1.48;;
19434;SDS011;9853;50.848;4.108;2023-11-18T03:17:26;5.97;;;2.13;;
19434;SDS011;9853;50.848;4.108;2023-11-18T03:19:26;7.57;;;2.03;;
19434;SDS011;9853;50.848;4.108;2023-11-18T03:21:28;21.23;;;3.22;;
19434;SDS011;9853;50.848;4.108;2023-11-18T03:23:28;7.33;;;2.93;;
19434;SDS011;9853;50.848;4.108;2023-11-18T03:25:29;8.13;;;2.70;;
19434;SDS011;9853;50.848;4.108;2023-11-18T03:27:30;10.10;;;3.15;;
19434;SDS011;9853;50.848;4.108;2023-11-18T03:29:31;15.23;;;3.65;;
19434;SDS011;9853;50.848;4.108;2023-11-18T03:31:32;8.82;;;2.33;;
19434;SDS011;9853;50.848;4.108;2023-11-18T03:33:33;7.95;;;2.47;;
19434;SDS011;9853;50.848;4.108;2023-11-18T03:35:34;10.68;;;2.13;;
19434;SDS011;9853;50.848;4.108;2023-11-18T03:37:35;8.45;;;2.42;;
19434;SDS011;9853;50.848;4.108;2023-11-18T03:39:38;10.07;;;2.45;;
19434;SDS011;9853;50.848;4.108;2023-11-18T03:41:40;11.48;;;2.38;;
19434;SDS011;9853;50.848;4.108;2023-11-18T03:43:44;8.80;;;1.92;;
19434;SDS011;9853;50.848;4.108;2023-11-18T03:45:45;15.82;;;3.33;;
19434;SDS011;9853;50.848;4.108;2023-11-18T03:47:46;12.32;;;2.38;;
19434;SDS011;9853;50.848;4.108;2023-11-18T03:49:47;9.25;;;2.00;;
19434;SDS011;9853;50.848;4.108;2023-11-18T03:51:48;9.90;;;2.60;;
19434;SDS011;9853;50.848;4.108;2023-11-18T03:53:49;4.03;;;1.77;;
19434;SDS011;9853;50.848;4.108;2023-11-18T03:55:50;14.02;;;2.50;;
19434;SDS011;9853;50.848;4.108;2023-11-18T03:57:52;8.38;;;1.63;;
19434;SDS011;9853;50.848;4.108;2023-11-18T03:59:52;6.35;;;1.75;;
19434;SDS011;9853;50.848;4.108;2023-11-18T04:01:54;6.50;;;1.10;;
19434;SDS011;9853;50.848;4.108;2023-11-18T04:03:54;3.92;;;0.77;;
19434;SDS011;9853;50.848;4.108;2023-11-18T04:05:55;4.60;;;1.65;;
19434;SDS011;9853;50.848;4.108;2023-11-18T04:07:56;3.92;;;0.93;;
19434;SDS011;9853;50.848;4.108;2023-11-18T04:09:57;3.85;;;1.15;;
19434;SDS011;9853;50.848;4.108;2023-11-18T04:11:57;1.13;;;0.70;;
19434;SDS011;9853;50.848;4.108;2023-11-18T04:13:58;1.83;;;0.93;;
19434;SDS011;9853;50.848;4.108;2023-11-18T04:15:59;3.08;;;0.70;;
19434;SDS011;9853;50.848;4.108;2023-11-18T04:18:00;4.95;;;0.55;;
19434;SDS011;9853;50.848;4.108;2023-11-18T04:20:01;5.93;;;1.00;;
19434;SDS011;9853;50.848;4.108;2023-11-18T04:22:05;3.13;;;0.77;;
19434;SDS011;9853;50.848;4.108;2023-11-18T04:24:06;5.75;;;1.48;;
19434;SDS011;9853;50.848;4.108;2023-11-18T04:26:07;2.92;;;0.65;;
19434;SDS011;9853;50.848;4.108;2023-11-18T04:28:08;3.58;;;0.75;;
19434;SDS011;9853;50.848;4.108;2023-11-18T04:30:10;2.63;;;0.40;;
19434;SDS011;9853;50.848;4.108;2023-11-18T04:32:12;3.72;;;0.85;;
19434;SDS011;9853;50.848;4.108;2023-11-18T04:34:14;4.35;;;0.47;;
19434;SDS011;9853;50.848;4.108;2023-11-18T04:36:14;1.02;;;0.60;;
19434;SDS011;9853;50.848;4.108;2023-11-18T04:38:16;2.47;;;1.00;;
19434;SDS011;9853;50.848;4.108;2023-11-18T04:40:17;2.08;;;0.60;;
19434;SDS011;9853;50.848;4.108;2023-11-18T04:42:18;6.10;;;0.80;;
19434;SDS011;9853;50.848;4.108;2023-11-18T04:44:19;3.33;;;0.90;;
19434;SDS011;9853;50.848;4.108;2023-11-18T04:46:20;6.95;;;0.80;;
19434;SDS011;9853;50.848;4.108;2023-11-18T04:48:22;3.20;;;0.93;;
19434;SDS011;9853;50.848;4.108;2023-11-18T04:50:23;4.82;;;0.80;;
19434;SDS011;9853;50.848;4.108;2023-11-18T04:52:24;1.85;;;0.47;;
19434;SDS011;9853;50.848;4.108;2023-11-18T04:54:25;2.40;;;0.60;;
19434;SDS011;9853;50.848;4.108;2023-11-18T04:56:26;5.18;;;0.75;;
19434;SDS011;9853;50.848;4.108;2023-11-18T04:58:27;2.92;;;1.10;;
19434;SDS011;9853;50.848;4.108;2023-11-18T05:00:27;3.88;;;0.88;;
19434;SDS011;9853;50.848;4.108;2023-11-18T05:02:28;4.95;;;0.30;;
19434;SDS011;9853;50.848;4.108;2023-11-18T05:04:29;5.53;;;0.90;;
19434;SDS011;9853;50.848;4.108;2023-11-18T05:06:30;2.88;;;0.47;;
19434;SDS011;9853;50.848;4.108;2023-11-18T05:08:31;3.40;;;0.68;;
19434;SDS011;9853;50.848;4.108;2023-11-18T05:10:34;4.18;;;0.30;;
19434;SDS011;9853;50.848;4.108;2023-11-18T05:12:35;6.30;;;1.50;;
19434;SDS011;9853;50.848;4.108;2023-11-18T05:14:37;1.25;;;0.40;;
19434;SDS011;9853;50.848;4.108;2023-11-18T05:16:38;3.42;;;0.50;;
19434;SDS011;9853;50.848;4.108;2023-11-18T05:18:39;15.30;;;0.47;;
19434;SDS011;9853;50.848;4.108;2023-11-18T05:20:41;7.97;;;0.40;;
19434;SDS011;9853;50.848;4.108;2023-11-18T05:22:44;6.22;;;0.50;;
19434;SDS011;9853;50.848;4.108;2023-11-18T05:24:45;3.45;;;0.77;;
19434;SDS011;9853;50.848;4.108;2023-11-18T05:26:48;1.55;;;0.43;;
19434;SDS011;9853;50.848;4.108;2023-11-18T05:28:49;11.15;;;1.52;;
19434;SDS011;9853;50.848;4.108;2023-11-18T05:30:50;4.03;;;0.40;;
19434;SDS011;9853;50.848;4.108;2023-11-18T05:32:51;2.63;;;0.88;;
19434;SDS011;9853;50.848;4.108;2023-11-18T05:34:52;5.70;;;0.77;;
19434;SDS011;9853;50.848;4.108;2023-11-18T05:36:55;0.50;;;0.28;;
19434;SDS011;9853;50.848;4.108;2023-11-18T05:38:55;4.22;;;0.65;;
19434;SDS011;9853;50.848;4.108;2023-11-18T05:40:56;1.23;;;0.30;;
19434;SDS011;9853;50.848;4.108;2023-11-18T05:42:58;2.65;;;0.73;;
19434;SDS011;9853;50.848;4.108;2023-11-18T05:44:59;0.70;;;0.45;;
19434;SDS011;9853;50.848;4.108;2023-11-18T05:46:59;2.90;;;0.30;;
19434;SDS011;9853;50.848;4.108;2023-11-18T05:49:02;1.52;;;0.47;;
19434;SDS011;9853;50.848;4.108;2023-11-18T05:51:07;6.33;;;1.33;;
19434;SDS011;9853;50.848;4.108;2023-11-18T05:53:08;0.67;;;0.53;;
19434;SDS011;9853;50.848;4.108;2023-11-18T05:55:09;1.05;;;0.60;;
19434;SDS011;9853;50.848;4.108;2023-11-18T05:57:11;2.77;;;0.63;;
19434;SDS011;9853;50.848;4.108;2023-11-18T05:59:11;2.37;;;0.60;;
19434;SDS011;9853;50.848;4.108;2023-11-18T06:01:15;4.60;;;0.60;;
19434;SDS011;9853;50.848;4.108;2023-11-18T06:03:17;8.67;;;0.77;;
19434;SDS011;9853;50.848;4.108;2023-11-18T06:05:18;1.75;;;0.93;;
19434;SDS011;9853;50.848;4.108;2023-11-18T06:07:19;0.10;;;0.10;;
19434;SDS011;9853;50.848;4.108;2023-11-18T06:09:19;7.07;;;0.82;;
19434;SDS011;9853;50.848;4.108;2023-11-18T06:11:25;3.67;;;0.63;;
19434;SDS011;9853;50.848;4.108;2023-11-18T06:13:27;2.42;;;0.45;;
19434;SDS011;9853;50.848;4.108;2023-11-18T06:15:28;3.65;;;0.90;;
19434;SDS011;9853;50.848;4.108;2023-11-18T06:17:29;3.55;;;0.68;;
19434;SDS011;9853;50.848;4.108;2023-11-18T06:19:29;1.90;;;0.57;;
19434;SDS011;9853;50.848;4.108;2023-11-18T06:21:30;1.92;;;0.88;;
19434;SDS011;9853;50.848;4.108;2023-11-18T06:23:31;7.13;;;1.05;;
19434;SDS011;9853;50.848;4.108;2023-11-18T06:25:33;4.85;;;1.10;;
19434;SDS011;9853;50.848;4.108;2023-11-18T06:27:35;4.78;;;0.57;;
19434;SDS011;9853;50.848;4.108;2023-11-18T06:29:36;0.50;;;0.40;;
19434;SDS011;9853;50.848;4.108;2023-11-18T06:31:36;2.63;;;0.43;;
19434;SDS011;9853;50.848;4.108;2023-11-18T06:33:38;5.72;;;0.75;;
19434;SDS011;9853;50.848;4.108;2023-11-18T06:35:45;2.50;;;0.47;;
19434;SDS011;9853;50.848;4.108;2023-11-18T06:37:46;0.50;;;0.20;;
19434;SDS011;9853;50.848;4.108;2023-11-18T06:39:47;5.00;;;0.77;;
19434;SDS011;9853;50.848;4.108;2023-11-18T06:41:49;9.57;;;1.35;;
19434;SDS011;9853;50.848;4.108;2023-11-18T06:43:51;2.22;;;0.73;;
19434;SDS011;9853;50.848;4.108;2023-11-18T06:45:52;1.00;;;0.55;;
19434;SDS011;9853;50.848;4.108;2023-11-18T06:47:52;0.75;;;0.10;;
19434;SDS011;9853;50.848;4.108;2023-11-18T06:49:54;3.17;;;0.95;;
19434;SDS011;9853;50.848;4.108;2023-11-18T06:51:56;2.17;;;0.43;;
19434;SDS011;9853;50.848;4.108;2023-11-18T06:53:57;1.63;;;0.43;;
19434;SDS011;9853;50.848;4.108;2023-11-18T06:55:58;0.88;;;0.50;;
19434;SDS011;9853;50.848;4.108;2023-11-18T06:57:59;6.53;;;0.55;;
19434;SDS011;9853;50.848;4.108;2023-11-18T07:00:00;4.78;;;0.60;;
19434;SDS011;9853;50.848;4.108;2023-11-18T07:02:00;0.77;;;0.45;;
19434;SDS011;9853;50.848;4.108;2023-11-18T07:04:01;2.95;;;0.70;;
19434;SDS011;9853;50.848;4.108;2023-11-18T07:06:03;6.32;;;1.02;;
19434;SDS011;9853;50.848;4.108;2023-11-18T07:08:05;3.80;;;0.52;;
19434;SDS011;9853;50.848;4.108;2023-11-18T07:10:08;2.03;;;0.77;;
19434;SDS011;9853;50.848;4.108;2023-11-18T07:12:13;2.33;;;0.40;;
19434;SDS011;9853;50.848;4.108;2023-11-18T07:14:14;2.45;;;0.75;;
19434;SDS011;9853;50.848;4.108;2023-11-18T07:16:17;3.78;;;1.33;;
19434;SDS011;9853;50.848;4.108;2023-11-18T07:18:19;3.72;;;0.95;;
19434;SDS011;9853;50.848;4.108;2023-11-18T07:20:22;6.38;;;0.68;;
19434;SDS011;9853;50.848;4.108;2023-11-18T07:22:22;4.40;;;0.88;;
19434;SDS011;9853;50.848;4.108;2023-11-18T07:24:25;6.55;;;1.23;;
19434;SDS011;9853;50.848;4.108;2023-11-18T07:26:25;8.05;;;1.10;;
19434;SDS011;9853;50.848;4.108;2023-11-18T07:28:26;3.15;;;0.63;;
19434;SDS011;9853;50.848;4.108;2023-11-18T07:30:27;2.95;;;0.88;;
19434;SDS011;9853;50.848;4.108;2023-11-18T07:32:28;3.78;;;0.47;;
19434;SDS011;9853;50.848;4.108;2023-11-18T07:34:30;1.25;;;0.70;;
19434;SDS011;9853;50.848;4.108;2023-11-18T07:36:33;11.48;;;1.40;;
19434;SDS011;9853;50.848;4.108;2023-11-18T07:38:34;4.82;;;0.80;;
19434;SDS011;9853;50.848;4.108;2023-11-18T07:40:34;4.88;;;1.38;;
19434;SDS011;9853;50.848;4.108;2023-11-18T07:42:35;3.30;;;1.08;;
19434;SDS011;9853;50.848;4.108;2023-11-18T07:44:36;1.55;;;0.80;;
19434;SDS011;9853;50.848;4.108;2023-11-18T07:46:38;3.13;;;1.08;;
19434;SDS011;9853;50.848;4.108;2023-11-18T07:48:42;3.83;;;0.98;;
19434;SDS011;9853;50.848;4.108;2023-11-18T07:50:43;8.40;;;1.55;;
19434;SDS011;9853;50.848;4.108;2023-11-18T07:52:44;2.60;;;0.90;;
19434;SDS011;9853;50.848;4.108;2023-11-18T07:54:46;4.75;;;1.15;;
19434;SDS011;9853;50.848;4.108;2023-11-18T07:56:48;1.98;;;0.95;;
19434;SDS011;9853;50.848;4.108;2023-11-18T07:58:49;2.80;;;1.15;;
19434;SDS011;9853;50.848;4.108;2023-11-18T08:00:51;6.18;;;1.45;;
19434;SDS011;9853;50.848;4.108;2023-11-18T08:02:52;6.10;;;1.85;;
19434;SDS011;9853;50.848;4.108;2023-11-18T08:04:54;2.50;;;1.23;;
19434;SDS011;9853;50.848;4.108;2023-11-18T08:06:56;2.92;;;1.60;;
19434;SDS011;9853;50.848;4.108;2023-11-18T08:08:57;0.80;;;0.70;;
19434;SDS011;9853;50.848;4.108;2023-11-18T08:10:58;2.20;;;1.42;;
19434;SDS011;9853;50.848;4.108;2023-11-18T08:13:00;4.40;;;0.93;;
19434;SDS011;9853;50.848;4.108;2023-11-18T08:15:01;10.85;;;1.42;;
19434;SDS011;9853;50.848;4.108;2023-11-18T08:17:03;7.80;;;1.48;;
19434;SDS011;9853;50.848;4.108;2023-11-18T08:19:05;2.80;;;1.17;;
19434;SDS011;9853;50.848;4.108;2023-11-18T08:21:08;3.25;;;1.52;;
19434;SDS011;9853;50.848;4.108;2023-11-18T08:23:09;3.55;;;1.05;;
19434;SDS011;9853;50.848;4.108;2023-11-18T08:25:11;2.03;;;1.00;;
19434;SDS011;9853;50.848;4.108;2023-11-18T08:27:12;5.57;;;1.85;;
19434;SDS011;9853;50.848;4.108;2023-11-18T08:29:13;2.58;;;1.13;;
19434;SDS011;9853;50.848;4.108;2023-11-18T08:31:14;3.45;;;1.52;;
19434;SDS011;9853;50.848;4.108;2023-11-18T08:33:18;2.22;;;1.10;;
19434;SDS011;9853;50.848;4.108;2023-11-18T08:35:20;3.65;;;1.25;;
19434;SDS011;9853;50.848;4.108;2023-11-18T08:37:21;8.82;;;2.40;;
19434;SDS011;9853;50.848;4.108;2023-11-18T08:39:22;2.30;;;1.50;;
19434;SDS011;9853;50.848;4.108;2023-11-18T08:41:26;1.92;;;1.10;;
19434;SDS011;9853;50.848;4.108;2023-11-18T08:43:26;3.10;;;1.38;;
19434;SDS011;9853;50.848;4.108;2023-11-18T08:45:30;2.70;;;1.30;;
19434;SDS011;9853;50.848;4.108;2023-11-18T08:47:32;2.03;;;0.95;;
19434;SDS011;9853;50.848;4.108;2023-11-18T08:49:33;4.28;;;1.33;;
19434;SDS011;9853;50.848;4.108;2023-11-18T08:51:34;9.00;;;1.83;;
19434;SDS011;9853;50.848;4.108;2023-11-18T08:53:37;3.67;;;1.27;;
19434;SDS011;9853;50.848;4.108;2023-11-18T08:55:41;4.38;;;1.70;;
19434;SDS011;9853;50.848;4.108;2023-11-18T08:57:51;3.42;;;1.45;;
19434;SDS011;9853;50.848;4.108;2023-11-18T09:00:04;2.72;;;1.30;;
19434;SDS011;9853;50.848;4.108;2023-11-18T09:02:18;6.80;;;1.73;;
19434;SDS011;9853;50.848;4.108;2023-11-18T09:04:23;1.48;;;1.17;;
19434;SDS011;9853;50.848;4.108;2023-11-18T09:06:24;4.72;;;1.63;;
19434;SDS011;9853;50.848;4.108;2023-11-18T09:08:29;2.85;;;1.48;;
19434;SDS011;9853;50.848;4.108;2023-11-18T09:10:38;3.75;;;1.48;;
19434;SDS011;9853;50.848;4.108;2023-11-18T09:12:41;1.55;;;1.23;;
19434;SDS011;9853;50.848;4.108;2023-11-18T09:14:45;5.30;;;1.35;;
19434;SDS011;9853;50.848;4.108;2023-11-18T09:16:47;2.58;;;1.35;;
19434;SDS011;9853;50.848;4.108;2023-11-18T09:18:49;4.32;;;1.02;;
19434;SDS011;9853;50.848;4.108;2023-11-18T09:20:51;10.18;;;1.52;;
19434;SDS011;9853;50.848;4.108;2023-11-18T09:22:52;2.33;;;1.08;;
19434;SDS011;9853;50.848;4.108;2023-11-18T09:24:55;5.60;;;1.77;;
19434;SDS011;9853;50.848;4.108;2023-11-18T09:26:56;6.20;;;1.25;;
19434;SDS011;9853;50.848;4.108;2023-11-18T09:28:57;1.85;;;0.95;;
19434;SDS011;9853;50.848;4.108;2023-11-18T09:30:58;3.45;;;1.10;;
19434;SDS011;9853;50.848;4.108;2023-11-18T09:33:00;1.27;;;0.82;;
19434;SDS011;9853;50.848;4.108;2023-11-18T09:35:02;1.92;;;1.33;;
19434;SDS011;9853;50.848;4.108;2023-11-18T09:37:08;2.25;;;1.00;;
19434;SDS011;9853;50.848;4.108;2023-11-18T09:39:10;3.90;;;1.42;;
19434;SDS011;9853;50.848;4.108;2023-11-18T09:41:29;4.15;;;1.40;;
19434;SDS011;9853;50.848;4.108;2023-11-18T09:43:30;3.63;;;1.17;;
19434;SDS011;9853;50.848;4.108;2023-11-18T09:45:56;7.28;;;1.20;;
19434;SDS011;9853;50.848;4.108;2023-11-18T09:48:01;3.53;;;1.15;;
19434;SDS011;9853;50.848;4.108;2023-11-18T09:50:08;3.83;;;1.10;;
19434;SDS011;9853;50.848;4.108;2023-11-18T09:52:14;5.43;;;1.23;;
19434;SDS011;9853;50.848;4.108;2023-11-18T09:56:51;1.67;;;1.00;;
19434;SDS011;9853;50.848;4.108;2023-11-18T09:59:05;3.33;;;1.40;;
19434;SDS011;9853;50.848;4.108;2023-11-18T10:01:16;1.92;;;1.20;;
19434;SDS011;9853;50.848;4.108;2023-11-18T10:03:21;4.25;;;1.38;;
19434;SDS011;9853;50.848;4.108;2023-11-18T10:05:23;1.67;;;1.15;;
19434;SDS011;9853;50.848;4.108;2023-11-18T10:07:26;1.95;;;1.10;;
19434;SDS011;9853;50.848;4.108;2023-11-18T10:09:32;3.88;;;1.75;;
19434;SDS011;9853;50.848;4.108;2023-11-18T10:11:39;2.15;;;1.15;;
19434;SDS011;9853;50.848;4.108;2023-11-18T10:13:41;3.40;;;1.67;;
19434;SDS011;9853;50.848;4.108;2023-11-18T10:15:44;3.83;;;1.55;;
19434;SDS011;9853;50.848;4.108;2023-11-18T10:17:48;2.50;;;1.63;;
19434;SDS011;9853;50.848;4.108;2023-11-18T10:20:07;4.60;;;2.53;;
19434;SDS011;9853;50.848;4.108;2023-11-18T10:22:22;2.80;;;1.65;;
19434;SDS011;9853;50.848;4.108;2023-11-18T10:24:24;4.95;;;1.70;;
19434;SDS011;9853;50.848;4.108;2023-11-18T10:26:25;1.95;;;1.20;;
19434;SDS011;9853;50.848;4.108;2023-11-18T10:28:30;2.20;;;1.25;;
19434;SDS011;9853;50.848;4.108;2023-11-18T10:30:43;3.92;;;1.05;;
19434;SDS011;9853;50.848;4.108;2023-11-18T10:32:59;2.97;;;0.75;;
19434;SDS011;9853;50.848;4.108;2023-11-18T10:35:06;5.90;;;1.13;;
19434;SDS011;9853;50.848;4.108;2023-11-18T10:37:11;4.05;;;1.13;;
19434;SDS011;9853;50.848;4.108;2023-11-18T10:39:13;1.67;;;0.93;;
19434;SDS011;9853;50.848;4.108;2023-11-18T10:41:16;1.50;;;1.00;;
19434;SDS011;9853;50.848;4.108;2023-11-18T10:43:19;1.92;;;0.68;;
19434;SDS011;9853;50.848;4.108;2023-11-18T10:45:23;0.75;;;0.63;;
19434;SDS011;9853;50.848;4.108;2023-11-18T10:47:25;2.30;;;0.85;;
19434;SDS011;9853;50.848;4.108;2023-11-18T10:49:28;2.15;;;0.88;;
19434;SDS011;9853;50.848;4.108;2023-11-18T10:51:36;1.77;;;0.73;;
19434;SDS011;9853;50.848;4.108;2023-11-18T10:53:42;0.88;;;0.57;;
19434;SDS011;9853;50.848;4.108;2023-11-18T10:55:53;0.63;;;0.43;;
19434;SDS011;9853;50.848;4.108;2023-11-18T10:57:54;1.58;;;0.80;;
19434;SDS011;9853;50.848;4.108;2023-11-18T10:59:58;0.68;;;0.40;;
19434;SDS011;9853;50.848;4.108;2023-11-18T11:02:17;2.13;;;0.50;;
19434;SDS011;9853;50.848;4.108;2023-11-18T11:04:20;1.90;;;0.57;;
19434;SDS011;9853;50.848;4.108;2023-11-18T11:06:21;0.93;;;0.30;;
19434;SDS011;9853;50.848;4.108;2023-11-18T11:08:26;4.50;;;0.73;;
19434;SDS011;9853;50.848;4.108;2023-11-18T11:10:28;0.65;;;0.45;;
19434;SDS011;9853;50.848;4.108;2023-11-18T11:12:29;1.05;;;0.35;;
19434;SDS011;9853;50.848;4.108;2023-11-18T11:14:34;0.80;;;0.70;;
19434;SDS011;9853;50.848;4.108;2023-11-18T11:16:41;0.55;;;0.30;;
19434;SDS011;9853;50.848;4.108;2023-11-18T11:18:48;0.10;;;0.10;;
19434;SDS011;9853;50.848;4.108;2023-11-18T11:21:11;0.52;;;0.45;;
19434;SDS011;9853;50.848;4.108;2023-11-18T11:28:20;0.70;;;0.55;;
19434;SDS011;9853;50.848;4.108;2023-11-18T11:30:23;1.40;;;0.38;;
19434;SDS011;9853;50.848;4.108;2023-11-18T11:32:35;0.50;;;0.20;;
19434;SDS011;9853;50.848;4.108;2023-11-18T11:34:44;0.20;;;0.10;;
19434;SDS011;9853;50.848;4.108;2023-11-18T11:37:08;0.60;;;0.30;;
19434;SDS011;9853;50.848;4.108;2023-11-18T11:39:11;0.90;;;0.22;;
19434;SDS011;9853;50.848;4.108;2023-11-18T11:41:15;0.68;;;0.30;;
19434;SDS011;9853;50.848;4.108;2023-11-18T11:43:19;0.30;;;0.20;;
19434;SDS011;9853;50.848;4.108;2023-11-18T11:45:24;1.27;;;0.20;;
19434;SDS011;9853;50.848;4.108;2023-11-18T11:47:29;0.68;;;0.35;;
19434;SDS011;9853;50.848;4.108;2023-11-18T11:49:41;0.40;;;0.20;;
19434;SDS011;9853;50.848;4.108;2023-11-18T11:52:32;0.70;;;0.10;;
19434;SDS011;9853;50.848;4.108;2023-11-18T11:54:17;0.10;;;0.10;;
19434;SDS011;9853;50.848;4.108;2023-11-18T11:56:39;1.00;;;0.38;;
19434;SDS011;9853;50.848;4.108;2023-11-18T11:58:41;0.15;;;0.10;;
19434;SDS011;9853;50.848;4.108;2023-11-18T12:00:44;0.15;;;0.15;;
19434;SDS011;9853;50.848;4.108;2023-11-18T12:02:48;1.95;;;0.28;;
19434;SDS011;9853;50.848;4.108;2023-11-18T12:04:50;2.90;;;0.30;;
19434;SDS011;9853;50.848;4.108;2023-11-18T12:06:54;0.30;;;0.10;;
19434;SDS011;9853;50.848;4.108;2023-11-18T12:08:56;0.45;;;0.22;;
19434;SDS011;9853;50.848;4.108;2023-11-18T12:10:58;1.10;;;0.20;;
19434;SDS011;9853;50.848;4.108;2023-11-18T12:13:09;0.52;;;0.20;;
19434;SDS011;9853;50.848;4.108;2023-11-18T12:15:16;0.15;;;0.13;;
19434;SDS011;9853;50.848;4.108;2023-11-18T12:19:59;1.50;;;0.57;;
19434;SDS011;9853;50.848;4.108;2023-11-18T12:21:59;0.45;;;0.20;;
19434;SDS011;9853;50.848;4.108;2023-11-18T12:24:16;0.28;;;0.20;;
19434;SDS011;9853;50.848;4.108;2023-11-18T12:26:37;4.38;;;0.35;;
19434;SDS011;9853;50.848;4.108;2023-11-18T12:28:40;1.75;;;0.50;;
19434;SDS011;9853;50.848;4.108;2023-11-18T12:30:45;0.47;;;0.20;;
19434;SDS011;9853;50.848;4.108;2023-11-18T12:34:56;0.47;;;0.32;;
19434;SDS011;9853;50.848;4.108;2023-11-18T12:37:27;1.73;;;0.32;;
19434;SDS011;9853;50.848;4.108;2023-11-18T12:42:01;1.42;;;0.40;;
19434;SDS011;9853;50.848;4.108;2023-11-18T12:44:30;0.63;;;0.40;;
19434;SDS011;9853;50.848;4.108;2023-11-18T12:48:49;3.90;;;1.02;;
19434;SDS011;9853;50.848;4.108;2023-11-18T12:50:55;0.40;;;0.40;;